Time;durP1;ratioP1;P1;durP2;ratioP2;P2;SDS_P1;SDS_P2;PMS_P1;PMS_P2;Temp;Humidity;BMP_temperature;BMP_pressure;BME280_temperature;BME280_humidity;BME280_pressure;Samples;Min_cycle;Max_cycle;Signal;HPM_P1;HPM_P2
2023/06/26 00:00:20;;;;;;;9.30;7.27;;;23.50;99.90;;;;;;5001251;28;20044;-72
2023/06/26 00:02:46;;;;;;;10.20;7.37;;;23.50;99.90;;;;;;5035190;28;20359;-72
2023/06/26 00:05:13;;;;;;;9.07;7.03;;;23.50;99.90;;;;;;5033977;28;20052;-72
2023/06/26 00:07:39;;;;;;;8.23;6.60;;;23.40;99.90;;;;;;5033536;28;20064;-72
2023/06/26 00:10:05;;;;;;;11.73;8.33;;;23.50;99.90;;;;;;5017584;28;20049;-73
2023/06/26 00:12:32;;;;;;;8.43;7.50;;;23.40;99.90;;;;;;5033611;28;20049;-72
2023/06/26 00:14:58;;;;;;;9.53;7.73;;;23.40;99.90;;;;;;5033976;28;20148;-73
2023/06/26 00:17:23;;;;;;;9.93;7.30;;;23.40;99.90;;;;;;5034643;28;20049;-73
2023/06/26 00:19:50;;;;;;;8.57;7.00;;;23.40;99.90;;;;;;5001157;28;20405;-72
2023/06/26 00:22:16;;;;;;;8.43;7.50;;;23.40;99.90;;;;;;5033682;28;20099;-72
2023/06/26 00:24:42;;;;;;;8.83;7.03;;;23.40;99.90;;;;;;5017206;28;20053;-73
2023/06/26 00:27:08;;;;;;;9.50;7.43;;;23.40;99.90;;;;;;5035049;28;20037;-73
2023/06/26 00:29:33;;;;;;;8.77;7.80;;;23.30;99.90;;;;;;5033419;28;20084;-73
2023/06/26 00:31:59;;;;;;;9.03;7.30;;;23.30;99.90;;;;;;5017244;28;20458;-72
2023/06/26 00:34:25;;;;;;;8.67;7.47;;;23.30;99.90;;;;;;5034201;28;20099;-73
2023/06/26 00:36:51;;;;;;;9.43;7.77;;;23.30;99.90;;;;;;5017002;28;20042;-72
2023/06/26 00:39:16;;;;;;;11.17;7.50;;;23.20;99.90;;;;;;5033615;28;20053;-72
2023/06/26 00:41:42;;;;;;;8.20;7.40;;;23.20;99.90;;;;;;5033132;28;20041;-73
2023/06/26 00:44:08;;;;;;;9.60;7.20;;;23.20;99.90;;;;;;5000831;28;20046;-73
2023/06/26 00:46:34;;;;;;;8.40;7.23;;;23.20;99.90;;;;;;5033010;28;20409;-73
2023/06/26 00:49:03;;;;;;;9.43;7.73;;;23.10;99.90;;;;;;5015824;28;20504;-72
2023/06/26 00:51:30;;;;;;;9.67;7.40;;;23.10;99.90;;;;;;5016759;28;20042;-72
2023/06/26 00:53:57;;;;;;;10.00;7.60;;;23.10;99.90;;;;;;5016953;28;20488;-72
2023/06/26 00:56:23;;;;;;;11.97;7.63;;;23.10;99.90;;;;;;5032922;28;20331;-75
2023/06/26 00:58:49;;;;;;;10.90;7.33;;;23.10;99.90;;;;;;5016457;28;20045;-73
2023/06/26 01:01:17;;;;;;;9.90;7.87;;;23.10;99.90;;;;;;5033026;28;20045;-72
2023/06/26 01:03:53;;;;;;;10.27;7.40;;;23.10;99.90;;;;;;5016524;28;20057;-72
2023/06/26 01:06:22;;;;;;;9.67;7.47;;;23.10;99.90;;;;;;5032743;28;20049;-72
2023/06/26 01:08:48;;;;;;;9.80;7.50;;;23.10;99.90;;;;;;5016175;28;20405;-72
2023/06/26 01:11:15;;;;;;;9.63;7.87;;;23.10;99.90;;;;;;5032913;28;20137;-72
2023/06/26 01:13:44;;;;;;;9.90;8.10;;;23.10;99.90;;;;;;5016077;28;20049;-72
2023/06/26 01:16:10;;;;;;;9.57;7.63;;;23.10;99.90;;;;;;5032554;28;20050;-72
2023/06/26 01:18:41;;;;;;;10.20;7.97;;;23.00;99.90;;;;;;5016120;28;20469;-72
2023/06/26 01:21:09;;;;;;;9.30;7.53;;;23.00;99.90;;;;;;5032689;28;20056;-72
2023/06/26 01:23:47;;;;;;;8.67;7.23;;;23.00;99.90;;;;;;5032206;28;20099;-72
2023/06/26 01:26:19;;;;;;;8.80;7.87;;;23.00;99.90;;;;;;5016077;28;20508;-72
2023/06/26 01:28:45;;;;;;;9.10;7.10;;;23.00;99.90;;;;;;5031930;28;20489;-72
2023/06/26 01:31:13;;;;;;;9.03;7.33;;;23.00;99.90;;;;;;5032681;28;20049;-72
2023/06/26 01:33:40;;;;;;;10.33;7.03;;;23.00;99.90;;;;;;5032067;28;20045;-72
2023/06/26 01:36:07;;;;;;;11.00;7.13;;;23.00;99.90;;;;;;5032659;28;20053;-72
2023/06/26 01:38:34;;;;;;;8.50;7.37;;;23.00;99.90;;;;;;5032203;28;20046;-72
2023/06/26 01:41:00;;;;;;;9.47;7.80;;;23.00;99.90;;;;;;5033336;28;20045;-72
2023/06/26 01:43:32;;;;;;;9.80;7.17;;;22.90;99.90;;;;;;4999462;28;20128;-72
2023/06/26 01:46:09;;;;;;;9.40;7.83;;;22.90;99.90;;;;;;5032206;28;20149;-72
2023/06/26 01:48:44;;;;;;;9.40;7.50;;;22.90;99.90;;;;;;5032071;28;20448;-72
2023/06/26 01:51:10;;;;;;;10.47;8.30;;;22.90;99.90;;;;;;5032033;28;20057;-72
2023/06/26 01:53:41;;;;;;;9.60;7.80;;;22.90;99.90;;;;;;5031609;28;20481;-73
2023/06/26 01:56:12;;;;;;;9.30;8.23;;;22.90;99.90;;;;;;5016146;28;20056;-72
2023/06/26 01:58:43;;;;;;;9.43;8.33;;;22.90;99.90;;;;;;5015312;28;20486;-72
2023/06/26 02:01:09;;;;;;;10.13;7.80;;;22.90;99.90;;;;;;5031937;28;20038;-72
2023/06/26 02:03:35;;;;;;;10.80;8.77;;;22.80;99.90;;;;;;5032635;28;20041;-72
2023/06/26 02:06:00;;;;;;;9.80;8.50;;;22.80;99.90;;;;;;5031621;28;20057;-72
2023/06/26 02:08:26;;;;;;;9.50;8.50;;;22.80;99.90;;;;;;5014968;28;20099;-72
2023/06/26 02:10:52;;;;;;;10.17;8.90;;;22.80;99.90;;;;;;4998896;28;20050;-72
2023/06/26 02:13:18;;;;;;;10.60;8.43;;;22.70;99.90;;;;;;5015261;28;20041;-72
2023/06/26 02:15:43;;;;;;;11.17;8.30;;;22.70;99.90;;;;;;5015134;28;20058;-73
2023/06/26 02:18:10;;;;;;;9.90;8.60;;;22.70;99.90;;;;;;4998971;28;20547;-73
2023/06/26 02:20:35;;;;;;;10.23;8.97;;;22.70;99.90;;;;;;5031162;28;20045;-73
2023/06/26 02:23:01;;;;;;;10.87;9.77;;;22.70;99.90;;;;;;5032834;28;20103;-73
2023/06/26 02:25:27;;;;;;;10.03;8.93;;;22.60;99.90;;;;;;5015474;28;20049;-73
2023/06/26 02:27:53;;;;;;;10.37;8.90;;;22.60;99.90;;;;;;5015104;28;20136;-73
2023/06/26 02:30:19;;;;;;;10.77;9.67;;;22.60;99.90;;;;;;5015287;28;20049;-73
2023/06/26 02:32:45;;;;;;;11.03;9.57;;;22.50;99.90;;;;;;5014856;28;20060;-73
2023/06/26 02:35:10;;;;;;;10.97;9.43;;;22.50;99.90;;;;;;5032394;28;20060;-73
2023/06/26 02:37:36;;;;;;;10.07;9.00;;;22.40;99.90;;;;;;5031357;28;20045;-73
2023/06/26 02:40:03;;;;;;;12.10;9.97;;;22.40;99.90;;;;;;5031582;28;20045;-73
2023/06/26 02:42:29;;;;;;;12.90;9.80;;;22.40;99.90;;;;;;5014697;28;20062;-72
2023/06/26 02:44:56;;;;;;;13.47;10.70;;;22.40;99.90;;;;;;4998460;28;20053;-72
2023/06/26 02:47:21;;;;;;;11.73;9.63;;;22.40;99.90;;;;;;4998501;28;20064;-72
2023/06/26 02:49:47;;;;;;;12.03;10.83;;;22.30;99.90;;;;;;5032021;28;20038;-73
2023/06/26 02:52:13;;;;;;;12.03;10.37;;;22.30;99.90;;;;;;5031407;28;20167;-73
2023/06/26 02:54:38;;;;;;;13.50;10.07;;;22.30;99.90;;;;;;5014701;28;20077;-73
2023/06/26 02:57:05;;;;;;;12.37;10.40;;;22.30;99.90;;;;;;5014868;28;20041;-73
2023/06/26 02:59:30;;;;;;;10.83;9.73;;;22.20;99.90;;;;;;5032285;28;20052;-73
2023/06/26 03:01:56;;;;;;;11.10;9.33;;;22.20;99.90;;;;;;5031770;28;20049;-73
2023/06/26 03:04:22;;;;;;;11.57;9.47;;;22.20;99.90;;;;;;5031156;28;20041;-73
2023/06/26 03:06:47;;;;;;;9.90;8.47;;;22.20;99.90;;;;;;5030633;28;20354;-73
2023/06/26 03:09:13;;;;;;;12.33;9.80;;;22.20;99.90;;;;;;5015183;28;20569;-73
2023/06/26 03:11:39;;;;;;;10.63;8.47;;;22.20;99.90;;;;;;5015937;28;20136;-73
2023/06/26 03:14:05;;;;;;;10.57;8.63;;;22.20;99.90;;;;;;5036221;28;20091;-73
2023/06/26 03:16:31;;;;;;;10.10;8.50;;;22.20;99.90;;;;;;5035370;28;20061;-73
2023/06/26 03:18:57;;;;;;;10.33;8.40;;;22.10;99.90;;;;;;5018365;28;20107;-73
2023/06/26 03:21:22;;;;;;;12.63;8.07;;;22.20;99.90;;;;;;5034654;28;20041;-73
2023/06/26 03:23:48;;;;;;;10.10;8.20;;;22.10;99.90;;;;;;5018385;28;20100;-73
2023/06/26 03:26:14;;;;;;;11.90;8.03;;;22.10;99.90;;;;;;5018884;28;20563;-72
2023/06/26 03:28:41;;;;;;;8.57;7.37;;;22.10;99.90;;;;;;5018188;28;20053;-75
2023/06/26 03:31:07;;;;;;;8.80;7.47;;;22.10;99.90;;;;;;5035822;28;20485;-73
2023/06/26 03:33:33;;;;;;;11.03;7.57;;;22.10;99.90;;;;;;5018325;28;20061;-73
2023/06/26 03:35:59;;;;;;;10.23;7.50;;;22.10;99.90;;;;;;5001591;28;20052;-73
2023/06/26 03:38:25;;;;;;;10.80;7.23;;;22.20;99.90;;;;;;5034695;28;20045;-73
2023/06/26 03:40:52;;;;;;;10.23;7.27;;;22.10;99.90;;;;;;5018114;28;20045;-73
2023/06/26 03:43:17;;;;;;;13.10;7.97;;;22.20;99.90;;;;;;5035683;28;20056;-73
2023/06/26 03:45:43;;;;;;;11.47;7.60;;;22.10;99.90;;;;;;5001627;28;20057;-73
2023/06/26 03:48:09;;;;;;;10.57;7.70;;;22.10;99.90;;;;;;5018334;28;20057;-72
2023/06/26 03:50:35;;;;;;;10.80;7.60;;;22.10;99.90;;;;;;5018027;28;20140;-73
2023/06/26 03:53:01;;;;;;;12.33;8.43;;;22.10;99.90;;;;;;5001357;28;20501;-73
2023/06/26 03:55:26;;;;;;;12.30;8.17;;;22.10;99.90;;;;;;5001632;28;20072;-73
2023/06/26 03:57:52;;;;;;;12.17;8.00;;;22.10;99.90;;;;;;5017681;28;20092;-73
2023/06/26 04:00:18;;;;;;;10.83;7.70;;;22.00;99.90;;;;;;5034438;28;20056;-73
2023/06/26 04:02:44;;;;;;;16.83;8.40;;;21.90;99.90;;;;;;5017299;28;20081;-75
2023/06/26 04:05:09;;;;;;;13.37;8.60;;;22.00;99.90;;;;;;5034365;28;20099;-73
2023/06/26 04:07:37;;;;;;;12.70;8.00;;;21.90;99.90;;;;;;5017521;28;20485;-72
2023/06/26 04:10:02;;;;;;;14.40;9.00;;;21.90;99.90;;;;;;5017737;28;20060;-73
2023/06/26 04:12:31;;;;;;;16.03;9.10;;;21.90;99.90;;;;;;5018184;28;20060;-72
2023/06/26 04:14:57;;;;;;;14.70;8.83;;;21.90;99.90;;;;;;5017345;28;20049;-72
2023/06/26 04:17:22;;;;;;;13.47;8.60;;;21.90;99.90;;;;;;5033949;28;20046;-73
2023/06/26 04:19:48;;;;;;;19.00;9.63;;;21.90;99.90;;;;;;5033066;28;20057;-73
2023/06/26 04:22:14;;;;;;;14.70;8.60;;;21.80;99.90;;;;;;5000396;28;20057;-73
2023/06/26 04:24:40;;;;;;;15.73;8.93;;;21.90;99.90;;;;;;5016717;28;20046;-73
2023/06/26 04:27:06;;;;;;;13.17;8.80;;;21.80;99.90;;;;;;5016780;28;20056;-72
2023/06/26 04:29:32;;;;;;;14.30;9.90;;;21.90;99.90;;;;;;5017172;28;20093;-72
2023/06/26 04:31:58;;;;;;;15.27;9.97;;;21.90;99.90;;;;;;5017039;28;20099;-73
2023/06/26 04:34:35;;;;;;;19.47;10.53;;;21.90;99.90;;;;;;5033579;28;20045;-73
2023/06/26 04:37:01;;;;;;;14.70;9.67;;;21.90;99.90;;;;;;5017561;28;20057;-73
2023/06/26 04:39:27;;;;;;;14.53;9.90;;;21.90;99.90;;;;;;5033528;28;20409;-73
2023/06/26 04:41:53;;;;;;;15.27;10.00;;;21.90;99.90;;;;;;5016490;28;20046;-73
2023/06/26 04:44:19;;;;;;;16.67;10.37;;;21.80;99.90;;;;;;5033329;28;20061;-73
2023/06/26 04:46:44;;;;;;;20.37;9.93;;;21.80;99.90;;;;;;5033342;28;20053;-73
2023/06/26 04:49:10;;;;;;;13.27;9.37;;;21.80;99.90;;;;;;5016852;28;20042;-73
2023/06/26 04:51:42;;;;;;;13.50;7.77;;;21.70;99.90;;;;;;5016896;28;20123;-73
2023/06/26 04:54:10;;;;;;;11.93;7.30;;;21.70;99.90;;;;;;5033082;28;20163;-73
2023/06/26 04:56:36;;;;;;;12.23;7.67;;;21.70;99.90;;;;;;5033409;28;20049;-72
2023/06/26 04:59:03;;;;;;;13.23;6.73;;;21.60;99.90;;;;;;5034078;28;20045;-72
2023/06/26 05:01:29;;;;;;;16.87;7.10;;;21.60;99.90;;;;;;5033066;28;20482;-72
2023/06/26 05:03:58;;;;;;;16.13;6.10;;;21.60;99.90;;;;;;5000323;28;20434;-73
2023/06/26 05:06:24;;;;;;;13.63;5.73;;;21.50;99.90;;;;;;5016575;28;20068;-72
2023/06/26 05:08:50;;;;;;;12.77;5.37;;;21.30;99.90;;;;;;5033073;28;20050;-74
2023/06/26 05:11:16;;;;;;;11.40;5.30;;;21.30;99.90;;;;;;5033391;28;20067;-72
2023/06/26 05:13:42;;;;;;;15.90;4.83;;;21.10;99.90;;;;;;5024004;28;20255;-72
2023/06/26 05:16:09;;;;;;;10.00;5.00;;;21.10;99.90;;;;;;5040620;28;20037;-73
2023/06/26 05:18:35;;;;;;;11.43;4.87;;;21.10;99.90;;;;;;5033680;28;20477;-72
2023/06/26 05:21:01;;;;;;;14.53;5.87;;;21.10;99.90;;;;;;5016135;28;20129;-73
2023/06/26 05:23:29;;;;;;;13.50;4.97;;;21.20;99.90;;;;;;5016315;28;20561;-73
2023/06/26 05:25:56;;;;;;;10.43;4.63;;;21.20;99.90;;;;;;5015864;28;20462;-75
2023/06/26 05:28:24;;;;;;;14.03;5.30;;;21.30;99.90;;;;;;4999710;28;20124;-74
2023/06/26 05:30:51;;;;;;;10.27;4.90;;;21.40;99.90;;;;;;5032594;28;20045;-75
2023/06/26 05:33:19;;;;;;;12.37;5.03;;;21.60;99.90;;;;;;5033452;28;20053;-74
2023/06/26 05:35:45;;;;;;;12.00;4.97;;;21.70;99.90;;;;;;5015864;28;20111;-74
2023/06/26 05:38:13;;;;;;;11.20;4.90;;;21.70;99.90;;;;;;5032149;28;20471;-77
2023/06/26 05:40:42;;;;;;;12.20;4.17;;;21.80;99.90;;;;;;5033354;28;20045;-77
2023/06/26 05:43:11;;;;;;;13.77;4.80;;;21.90;99.90;;;;;;5031816;28;20128;-79
2023/06/26 05:45:38;;;;;;;18.73;4.93;;;21.80;99.90;;;;;;5032317;28;20045;-80
2023/06/26 05:48:08;;;;;;;13.77;5.03;;;22.00;99.90;;;;;;5015789;28;20045;-81
2023/06/26 05:50:41;;;;;;;12.77;5.33;;;22.30;99.90;;;;;;5015365;28;20107;-81
2023/06/26 05:53:15;;;;;;;14.18;4.82;;;22.80;99.90;;;;;;5015428;28;20060;-79
2023/06/26 05:55:42;;;;;;;13.80;5.03;;;23.90;99.90;;;;;;5032396;28;20138;-78
2023/06/26 05:58:12;;;;;;;10.90;4.97;;;25.00;99.90;;;;;;5000445;28;20449;-76
2023/06/26 06:00:40;;;;;;;12.83;4.00;;;25.30;99.90;;;;;;5032073;28;20045;-81
2023/06/26 06:03:06;;;;;;;12.83;3.53;;;25.80;99.90;;;;;;5015398;28;20046;-80
2023/06/26 06:05:32;;;;;;;11.97;4.57;;;26.50;99.90;;;;;;5013150;28;20408;-79
2023/06/26 06:07:58;;;;;;;11.90;4.23;;;27.40;99.90;;;;;;5014902;28;20138;-80
2023/06/26 06:10:24;;;;;;;10.43;3.77;;;27.80;99.90;;;;;;5033201;28;20099;-79
2023/06/26 06:12:49;;;;;;;12.23;3.67;;;28.20;99.90;;;;;;5032132;28;20041;-79
2023/06/26 06:15:15;;;;;;;11.13;3.70;;;28.90;99.90;;;;;;5031784;28;20087;-79
2023/06/26 06:17:41;;;;;;;14.77;3.70;;;29.60;97.90;;;;;;5015712;28;20589;-79
2023/06/26 06:20:07;;;;;;;10.18;3.22;;;30.30;93.20;;;;;;4982724;28;20515;-79
2023/06/26 06:22:39;;;;;;;6.97;2.70;;;30.90;87.00;;;;;;5000446;28;20085;-79
2023/06/26 06:25:05;;;;;;;8.80;3.00;;;31.40;77.60;;;;;;4998791;28;20449;-79
2023/06/26 06:27:31;;;;;;;7.22;2.70;;;31.80;68.60;;;;;;5031848;28;20045;-79
2023/06/26 06:29:57;;;;;;;10.20;3.20;;;32.20;61.60;;;;;;5015416;28;20441;-78
2023/06/26 06:32:22;;;;;;;8.35;3.10;;;32.50;59.30;;;;;;5014859;28;20041;-79
2023/06/26 06:34:48;;;;;;;8.23;3.00;;;32.60;56.10;;;;;;5031685;28;20053;-79
2023/06/26 06:37:15;;;;;;;9.45;2.95;;;32.90;55.00;;;;;;4998900;28;20049;-79
2023/06/26 06:39:41;;;;;;;7.28;3.00;;;33.40;53.50;;;;;;5033282;28;20493;-78
2023/06/26 06:42:07;;;;;;;7.35;2.83;;;34.00;52.00;;;;;;5014910;28;20056;-79
2023/06/26 06:44:32;;;;;;;11.02;3.40;;;34.30;50.10;;;;;;5015555;28;20049;-79
2023/06/26 06:46:58;;;;;;;7.95;3.00;;;34.40;48.80;;;;;;5014283;28;20429;-78
2023/06/26 06:49:27;;;;;;;9.27;3.45;;;34.80;48.00;;;;;;5015388;28;20529;-76
2023/06/26 06:51:52;;;;;;;9.23;3.50;;;35.00;47.80;;;;;;4998592;28;20132;-78
2023/06/26 06:54:19;;;;;;;6.22;3.00;;;34.90;45.90;;;;;;5031422;28;20063;-78
2023/06/26 06:56:45;;;;;;;6.80;2.53;;;33.70;46.20;;;;;;5031418;28;20049;-78
2023/06/26 06:59:11;;;;;;;10.02;3.22;;;33.10;47.00;;;;;;4998275;28;20045;-78
2023/06/26 07:01:37;;;;;;;11.32;4.03;;;32.70;47.60;;;;;;5014787;28;20085;-78
2023/06/26 07:04:03;;;;;;;8.63;3.20;;;32.90;48.10;;;;;;4998431;28;20081;-79
2023/06/26 07:06:29;;;;;;;6.97;2.80;;;33.40;47.10;;;;;;5014789;28;20081;-78
2023/06/26 07:08:55;;;;;;;7.90;2.90;;;33.90;46.80;;;;;;5015153;28;20057;-78
2023/06/26 07:11:21;;;;;;;6.93;3.15;;;34.40;45.70;;;;;;5031210;28;20060;-78
2023/06/26 07:13:47;;;;;;;5.68;2.50;;;34.90;45.30;;;;;;5031245;28;20159;-78
2023/06/26 07:16:14;;;;;;;5.68;2.83;;;35.50;44.30;;;;;;5032180;28;20041;-78
2023/06/26 07:18:40;;;;;;;6.38;2.88;;;35.90;43.10;;;;;;5032217;28;20477;-78
2023/06/26 07:21:06;;;;;;;6.20;2.38;;;35.70;42.20;;;;;;4998023;28;20071;-78
2023/06/26 07:23:32;;;;;;;5.53;2.50;;;35.40;42.50;;;;;;5014988;28;20487;-78
2023/06/26 07:25:58;;;;;;;5.70;2.67;;;35.00;42.20;;;;;;4982385;28;20079;-78
2023/06/26 07:28:24;;;;;;;3.88;2.35;;;34.60;42.70;;;;;;4998570;28;20149;-78
2023/06/26 07:30:50;;;;;;;6.05;2.42;;;34.00;42.70;;;;;;5032423;28;20124;-77
2023/06/26 07:33:16;;;;;;;6.05;2.50;;;34.00;43.30;;;;;;4982209;28;20045;-78
2023/06/26 07:35:45;;;;;;;6.00;2.67;;;33.70;43.40;;;;;;5015249;28;20509;-78
2023/06/26 07:38:11;;;;;;;4.82;2.17;;;33.70;43.80;;;;;;5032282;28;20056;-78
2023/06/26 07:40:36;;;;;;;4.95;2.35;;;34.00;44.00;;;;;;5032203;28;20095;-78
2023/06/26 07:43:02;;;;;;;5.85;2.40;;;34.80;43.30;;;;;;4998767;28;20382;-78
2023/06/26 07:45:28;;;;;;;4.57;2.40;;;35.30;42.40;;;;;;5014637;28;20132;-78
2023/06/26 07:47:54;;;;;;;5.13;2.88;;;35.80;41.50;;;;;;5031069;28;20045;-78
2023/06/26 07:50:22;;;;;;;4.20;2.10;;;35.40;40.60;;;;;;5014350;28;20048;-78
2023/06/26 07:52:48;;;;;;;6.45;2.50;;;34.60;41.50;;;;;;4999267;28;20052;-78
2023/06/26 07:55:14;;;;;;;6.13;2.58;;;33.50;42.70;;;;;;5014577;28;20417;-78
2023/06/26 07:57:40;;;;;;;5.88;2.65;;;32.60;44.00;;;;;;5015667;28;20053;-78
2023/06/26 08:00:06;;;;;;;7.43;2.95;;;32.30;45.00;;;;;;5034617;28;20107;-78
2023/06/26 08:02:32;;;;;;;5.65;2.65;;;32.20;45.10;;;;;;5017886;28;20041;-78
2023/06/26 08:04:58;;;;;;;5.93;2.22;;;32.10;45.30;;;;;;5034352;28;20044;-78
2023/06/26 08:07:24;;;;;;;4.65;2.47;;;31.80;45.40;;;;;;5017593;28;20489;-78
2023/06/26 08:09:49;;;;;;;5.13;2.30;;;31.40;45.90;;;;;;5018195;28;20416;-77
2023/06/26 08:12:15;;;;;;;6.10;2.80;;;30.80;46.30;;;;;;5034175;28;20050;-77
2023/06/26 08:14:41;;;;;;;4.45;2.20;;;30.70;47.50;;;;;;5034212;28;20055;-78
2023/06/26 08:17:06;;;;;;;5.38;2.80;;;31.30;47.30;;;;;;5034332;28;20049;-78
2023/06/26 08:19:35;;;;;;;5.07;2.63;;;32.10;46.30;;;;;;5017921;28;20061;-78
2023/06/26 08:22:01;;;;;;;4.35;2.03;;;32.00;45.60;;;;;;5001251;28;20451;-78
2023/06/26 08:24:27;;;;;;;7.18;2.70;;;32.30;46.00;;;;;;5035072;28;20068;-78
2023/06/26 08:26:58;;;;;;;7.00;3.08;;;32.70;45.60;;;;;;5003090;28;20088;-78
2023/06/26 08:29:24;;;;;;;6.18;2.60;;;32.90;45.30;;;;;;5017554;28;20064;-78
2023/06/26 08:31:50;;;;;;;6.35;2.58;;;32.40;44.60;;;;;;5033724;28;20041;-78
2023/06/26 08:34:16;;;;;;;9.48;2.97;;;31.60;45.10;;;;;;5033680;28;20049;-78
2023/06/26 08:36:41;;;;;;;6.32;2.83;;;31.10;46.10;;;;;;5034057;28;20045;-77
2023/06/26 08:39:08;;;;;;;6.57;2.47;;;30.80;46.50;;;;;;5034860;28;20351;-76
2023/06/26 08:41:34;;;;;;;6.30;2.80;;;30.30;47.40;;;;;;5033391;28;20052;-77
2023/06/26 08:44:00;;;;;;;6.28;2.78;;;29.90;47.80;;;;;;5034788;28;20053;-77
2023/06/26 08:46:27;;;;;;;7.72;2.33;;;29.70;48.30;;;;;;5033431;28;20191;-77
2023/06/26 08:49:04;;;;;;;6.88;2.63;;;29.60;48.80;;;;;;5033975;28;20505;-77
2023/06/26 08:51:33;;;;;;;6.10;2.42;;;29.60;49.40;;;;;;5034552;28;20132;-77
2023/06/26 08:54:00;;;;;;;5.88;2.63;;;29.20;49.60;;;;;;5034540;28;20056;-77
2023/06/26 08:56:34;;;;;;;6.72;2.90;;;28.80;49.80;;;;;;5034474;28;20045;-77
2023/06/26 08:59:01;;;;;;;5.20;2.70;;;28.70;51.50;;;;;;5033384;28;20060;-77
2023/06/26 09:01:27;;;;;;;5.25;2.85;;;28.60;51.30;;;;;;5016566;28;20068;-77
2023/06/26 09:03:53;;;;;;;6.93;2.40;;;28.40;51.00;;;;;;5034509;28;20049;-77
2023/06/26 09:06:19;;;;;;;7.18;2.63;;;28.10;51.70;;;;;;5033153;28;20049;-76
2023/06/26 09:08:45;;;;;;;6.18;2.80;;;27.90;51.40;;;;;;5016321;28;20042;-77
2023/06/26 09:11:11;;;;;;;4.90;2.83;;;27.80;52.60;;;;;;5032978;28;20101;-77
2023/06/26 09:13:37;;;;;;;8.85;3.20;;;28.00;52.80;;;;;;5016531;28;20474;-77
2023/06/26 09:16:09;;;;;;;5.80;2.88;;;27.90;53.10;;;;;;5033221;28;20485;-77
2023/06/26 09:18:35;;;;;;;9.77;2.90;;;27.60;54.20;;;;;;5033920;28;20053;-78
2023/06/26 09:21:08;;;;;;;7.07;3.17;;;27.30;53.90;;;;;;5032971;28;20045;-77
2023/06/26 09:23:35;;;;;;;;;;;27.20;55.00;;;;;;5033260;28;20453;-77
2023/06/26 09:26:05;;;;;;;8.02;3.50;;;27.10;56.40;;;;;;5032911;28;19971;-77
2023/06/26 09:28:33;;;;;;;9.10;3.50;;;27.10;57.30;;;;;;5032909;28;20046;-77
2023/06/26 09:31:06;;;;;;;6.55;3.17;;;27.20;57.00;;;;;;5034167;28;20049;-77
2023/06/26 09:33:36;;;;;;;6.15;2.88;;;27.20;57.20;;;;;;5033682;28;20052;-77
2023/06/26 09:36:09;;;;;;;6.20;2.70;;;27.10;57.70;;;;;;5016517;28;20128;-77
2023/06/26 09:38:35;;;;;;;6.25;2.72;;;27.00;57.60;;;;;;5032634;28;20045;-77
2023/06/26 09:41:05;;;;;;;5.05;2.10;;;26.90;58.10;;;;;;5032775;28;20049;-77
2023/06/26 09:43:31;;;;;;;6.35;2.85;;;27.00;58.60;;;;;;5032417;28;20041;-77
2023/06/26 09:45:58;;;;;;;6.68;3.00;;;27.00;59.30;;;;;;5032506;28;20052;-77
2023/06/26 09:48:24;;;;;;;5.78;2.70;;;26.90;59.40;;;;;;5016102;28;20052;-77
2023/06/26 09:50:49;;;;;;;7.20;2.72;;;26.70;59.30;;;;;;5032299;28;20045;-77
2023/06/26 09:53:15;;;;;;;8.18;3.05;;;26.70;60.40;;;;;;5015948;28;20124;-77
2023/06/26 09:55:43;;;;;;;6.15;2.53;;;26.80;60.10;;;;;;4999510;28;20085;-77
2023/06/26 09:58:15;;;;;;;6.60;2.38;;;26.80;60.10;;;;;;5033432;28;20092;-77
2023/06/26 10:00:44;;;;;;;6.53;2.80;;;26.70;59.90;;;;;;5032798;28;20141;-77
2023/06/26 10:03:12;;;;;;;6.88;2.78;;;26.60;60.20;;;;;;5032082;28;20451;-77
2023/06/26 10:05:42;;;;;;;7.85;3.50;;;26.60;60.30;;;;;;5031953;28;20049;-77
2023/06/26 10:08:09;;;;;;;6.45;2.60;;;26.60;62.00;;;;;;4999433;28;20058;-77
2023/06/26 10:10:37;;;;;;;8.30;3.17;;;26.60;61.90;;;;;;5031978;28;20096;-77
2023/06/26 10:13:17;;;;;;;5.27;2.60;;;26.60;62.20;;;;;;5016009;28;20052;-77
2023/06/26 10:15:45;;;;;;;6.28;2.70;;;26.70;61.60;;;;;;5032037;28;20146;-77
2023/06/26 10:18:13;;;;;;;7.53;2.55;;;26.70;61.20;;;;;;5015348;28;20053;-77
2023/06/26 10:20:40;;;;;;;4.97;2.30;;;26.50;59.30;;;;;;5031054;28;20055;-77
2023/06/26 10:23:08;;;;;;;7.67;2.87;;;26.30;59.50;;;;;;5031795;28;20402;-77
2023/06/26 10:25:40;;;;;;;9.53;2.40;;;26.10;60.10;;;;;;5032802;28;20041;-77
2023/06/26 10:28:08;;;;;;;6.27;2.30;;;26.00;61.20;;;;;;5031958;28;20049;-77
2023/06/26 10:30:36;;;;;;;6.37;2.33;;;25.90;62.40;;;;;;5032690;28;20080;-77
2023/06/26 10:33:03;;;;;;;7.30;2.30;;;25.90;63.90;;;;;;5031552;28;20504;-77
2023/06/26 10:35:30;;;;;;;7.23;2.73;;;25.80;64.80;;;;;;5031857;28;20045;-78
2023/06/26 10:38:03;;;;;;;6.20;2.33;;;25.60;64.70;;;;;;5031959;28;20103;-77
2023/06/26 10:40:41;;;;;;;8.40;2.43;;;25.60;65.00;;;;;;5031448;28;20386;-77
2023/06/26 10:43:08;;;;;;;5.83;2.10;;;25.40;65.30;;;;;;5031791;28;20124;-77
2023/06/26 10:45:37;;;;;;;5.87;2.03;;;25.30;66.40;;;;;;5031746;28;20397;-77
2023/06/26 10:48:04;;;;;;;6.93;2.37;;;25.30;67.00;;;;;;5031580;28;20103;-77
2023/06/26 10:50:37;;;;;;;5.53;2.10;;;25.20;67.90;;;;;;5015115;28;20060;-78
2023/06/26 10:53:11;;;;;;;7.13;2.23;;;25.10;68.90;;;;;;5031733;28;20505;-78
2023/06/26 10:55:40;;;;;;;7.18;2.65;;;25.10;70.20;;;;;;5031305;28;20041;-77
2023/06/26 10:58:47;;;;;;;5.17;1.90;;;25.10;71.30;;;;;;5032978;28;20048;-77
2023/06/26 11:01:22;;;;;;;6.13;2.60;;;25.20;72.80;;;;;;5031422;28;20425;-77
2023/06/26 11:03:56;;;;;;;5.50;1.90;;;25.30;71.80;;;;;;5031222;28;20051;-77
2023/06/26 11:06:22;;;;;;;6.17;2.00;;;25.40;71.40;;;;;;5015097;28;20088;-76
2023/06/26 11:08:55;;;;;;;5.30;1.83;;;25.50;70.40;;;;;;5014914;28;20061;-76
2023/06/26 11:11:41;;;;;;;6.43;1.83;;;25.40;67.90;;;;;;5031546;28;20045;-77
2023/06/26 11:14:08;;;;;;;7.47;2.23;;;25.20;68.50;;;;;;5031360;28;20061;-77
2023/06/26 11:16:34;;;;;;;8.17;1.93;;;25.10;69.50;;;;;;5032077;28;20055;-77
2023/06/26 11:19:00;;;;;;;6.80;2.33;;;24.90;68.00;;;;;;5032536;28;20087;-77
2023/06/26 11:21:27;;;;;;;7.50;2.57;;;24.80;65.90;;;;;;5014982;28;20037;-77
2023/06/26 11:23:58;;;;;;;5.50;2.00;;;24.70;64.80;;;;;;5030940;28;20129;-77
2023/06/26 11:26:23;;;;;;;5.93;2.33;;;24.70;65.50;;;;;;5032358;28;20046;-77
2023/06/26 11:28:51;;;;;;;6.13;2.13;;;24.80;65.00;;;;;;5030782;28;20625;-77
2023/06/26 11:31:32;;;;;;;6.33;2.43;;;24.70;64.30;;;;;;5014827;28;20107;-77
2023/06/26 11:34:00;;;;;;;5.23;1.87;;;24.70;64.50;;;;;;5034773;28;20094;-76
2023/06/26 11:36:29;;;;;;;7.80;1.97;;;24.70;63.80;;;;;;5018670;28;20060;-76
2023/06/26 11:38:56;;;;;;;5.47;2.00;;;24.80;64.90;;;;;;5035840;28;20486;-76
2023/06/26 11:41:23;;;;;;;7.07;2.00;;;24.80;64.70;;;;;;5034638;28;20497;-76
2023/06/26 11:43:50;;;;;;;6.37;2.40;;;24.80;64.90;;;;;;5034648;28;20049;-76
2023/06/26 11:46:18;;;;;;;6.27;2.00;;;24.70;64.90;;;;;;5035060;28;20054;-76
2023/06/26 11:48:44;;;;;;;7.93;2.03;;;24.60;65.70;;;;;;5034664;28;20548;-76
2023/06/26 11:51:12;;;;;;;6.23;2.47;;;24.50;66.00;;;;;;5018742;28;20063;-76
2023/06/26 11:53:42;;;;;;;5.20;1.83;;;24.50;66.50;;;;;;5034662;28;20042;-76
2023/06/26 11:56:12;;;;;;;12.80;2.40;;;24.40;67.10;;;;;;5035489;28;20405;-76
2023/06/26 11:59:01;;;;;;;7.27;2.17;;;24.40;67.50;;;;;;5035626;28;20049;-76
2023/06/26 12:01:46;;;;;;;5.83;2.10;;;24.40;68.00;;;;;;5003363;28;20049;-76
2023/06/26 12:04:15;;;;;;;7.13;2.03;;;24.40;67.00;;;;;;5034379;28;20053;-76
2023/06/26 12:06:48;;;;;;;7.73;2.70;;;24.40;65.50;;;;;;5034809;28;20049;-76
2023/06/26 12:09:14;;;;;;;8.18;2.40;;;24.40;66.80;;;;;;5035783;28;20421;-76
2023/06/26 12:11:43;;;;;;;7.13;2.27;;;24.40;69.20;;;;;;5017813;28;20108;-76
2023/06/26 12:14:10;;;;;;;7.00;1.97;;;24.40;70.60;;;;;;5035429;28;20068;-76
2023/06/26 12:16:38;;;;;;;7.43;2.70;;;24.50;69.40;;;;;;5017933;28;20045;-76
2023/06/26 12:19:06;;;;;;;10.30;2.43;;;24.40;69.30;;;;;;5034229;28;20445;-76
2023/06/26 12:21:37;;;;;;;8.00;2.53;;;24.40;70.40;;;;;;5034208;28;20461;-76
2023/06/26 12:24:05;;;;;;;6.40;2.40;;;24.30;70.50;;;;;;5035234;28;20045;-76
2023/06/26 12:26:36;;;;;;;6.60;2.10;;;24.20;69.30;;;;;;5034166;28;20065;-76
2023/06/26 12:29:11;;;;;;;7.33;2.43;;;24.10;69.10;;;;;;5035218;28;20052;-76
2023/06/26 12:31:48;;;;;;;6.20;2.20;;;24.00;70.10;;;;;;5033554;28;20041;-77
2023/06/26 12:34:17;;;;;;;7.10;2.63;;;24.00;70.30;;;;;;5034268;28;20410;-76
2023/06/26 12:36:53;;;;;;;7.47;2.30;;;24.00;72.00;;;;;;5033908;28;20050;-76
2023/06/26 12:39:22;;;;;;;7.40;2.17;;;24.20;74.40;;;;;;5035061;28;20049;-76
2023/06/26 12:41:55;;;;;;;11.77;3.00;;;24.20;73.20;;;;;;5033515;28;20045;-76
2023/06/26 12:44:25;;;;;;;7.45;3.00;;;24.30;76.00;;;;;;5033102;28;20377;-76